createdAt,value
2022-11-14T00:00:38.434Z,18.62
2022-11-14T00:05:30.878Z,18.61
2022-11-14T00:10:23.253Z,18.61
2022-11-14T00:15:16.031Z,18.58
2022-11-14T00:20:08.449Z,18.57
2022-11-14T00:25:00.907Z,18.53
2022-11-14T00:29:53.456Z,18.51
2022-11-14T00:34:46.101Z,18.51
2022-11-14T00:39:38.463Z,18.5
2022-11-14T00:44:33.032Z,18.47
2022-11-14T00:49:25.291Z,18.47
2022-11-14T00:54:17.997Z,18.46
2022-11-14T00:59:10.322Z,18.44
2022-11-14T01:04:02.933Z,18.43
2022-11-14T01:08:55.462Z,18.41
2022-11-14T01:13:47.907Z,18.4
2022-11-14T01:18:40.311Z,18.38
2022-11-14T01:23:32.784Z,18.36
2022-11-14T01:28:25.342Z,18.34
2022-11-14T01:33:18.047Z,18.33
2022-11-14T01:38:10.214Z,18.32
2022-11-14T01:43:02.671Z,18.3
2022-11-14T01:47:55.103Z,18.3
2022-11-14T01:52:47.576Z,18.29
2022-11-14T01:57:40.104Z,18.3
2022-11-14T02:02:32.403Z,18.25
2022-11-14T02:07:25.033Z,18.26
2022-11-14T02:12:17.487Z,18.24
2022-11-14T02:22:02.360Z,18.21
2022-11-14T02:26:54.770Z,18.19
2022-11-14T02:31:47.262Z,18.16
2022-11-14T02:36:39.610Z,18.17
2022-11-14T02:41:32.020Z,18.15
2022-11-14T02:46:24.944Z,18.21
2022-11-14T02:51:17.480Z,18.24
2022-11-14T02:56:09.680Z,18.23
2022-11-14T03:01:21.747Z,18.24
2022-11-14T03:05:54.558Z,18.26
2022-11-14T03:10:47.350Z,18.22
2022-11-14T03:15:39.791Z,18.21
2022-11-14T03:20:32.402Z,18.2
2022-11-14T03:25:24.821Z,18.21
2022-11-14T03:30:17.573Z,18.21
2022-11-14T03:35:09.798Z,18.23
2022-11-14T03:40:02.449Z,18.44
2022-11-14T03:49:47.813Z,18.93
2022-11-14T03:59:32.945Z,19.24
2022-11-14T04:04:25.483Z,19.3
2022-11-14T04:09:18.173Z,19.33
2022-11-14T04:14:10.734Z,19.37
2022-11-14T04:19:03.410Z,19.4
2022-11-14T04:23:56.042Z,19.43
2022-11-14T04:28:48.701Z,19.43
2022-11-14T04:33:40.956Z,19.42
2022-11-14T04:38:33.618Z,19.41
2022-11-14T04:43:26.006Z,19.42
2022-11-14T04:48:18.522Z,19.4
2022-11-14T04:53:10.918Z,19.4
2022-11-14T04:58:03.382Z,19.36
2022-11-14T05:02:55.886Z,19.26
2022-11-14T05:07:48.410Z,19.32
2022-11-14T05:12:41.213Z,19.66
2022-11-14T05:17:33.967Z,19.7
2022-11-14T05:22:26.520Z,19.78
2022-11-14T05:27:19.248Z,19.84
2022-11-14T05:32:16.055Z,19.84
2022-11-14T05:37:04.252Z,19.8
2022-11-14T05:41:56.880Z,19.81
2022-11-14T05:46:49.340Z,19.82
2022-11-14T05:51:42.103Z,19.89
2022-11-14T05:56:34.861Z,19.86
2022-11-14T06:01:27.280Z,19.65
2022-11-14T06:06:20.085Z,19.72
2022-11-14T06:11:12.964Z,19.71
2022-11-14T06:16:05.598Z,19.73
2022-11-14T06:20:58.168Z,19.72
2022-11-14T06:25:50.637Z,19.74
2022-11-14T06:30:43.359Z,19.75
2022-11-14T06:35:35.610Z,19.75
2022-11-14T06:40:27.989Z,19.73
2022-11-14T06:45:20.566Z,19.72
2022-11-14T06:50:13.223Z,19.7
2022-11-14T06:55:07.834Z,19.66
2022-11-14T06:59:59.993Z,19.64
2022-11-14T07:04:52.663Z,19.6
2022-11-14T07:09:44.980Z,19.58
2022-11-14T07:14:37.473Z,19.55
2022-11-14T07:19:30.067Z,19.51
2022-11-14T07:24:22.298Z,19.48
2022-11-14T07:29:14.832Z,19.42
2022-11-14T07:34:07.316Z,19.39
2022-11-14T07:39:00.223Z,19.33
2022-11-14T07:43:52.915Z,19.28
2022-11-14T07:48:45.475Z,19.26
2022-11-14T07:53:35.008Z,19.24
2022-11-14T07:58:29.049Z,19.2
2022-11-14T08:03:21.334Z,19.2
2022-11-14T08:08:13.968Z,19.16
2022-11-14T08:13:34.106Z,19.14
2022-11-14T08:17:59.250Z,19.13
2022-11-14T08:22:51.589Z,19.1
2022-11-14T08:27:44.264Z,19.08
2022-11-14T08:32:36.999Z,19.07
2022-11-14T08:37:29.702Z,19.02
2022-11-14T08:42:22.265Z,19
2022-11-14T08:47:14.888Z,19.02
2022-11-14T08:52:09.290Z,18.98
2022-11-14T08:57:00.132Z,18.99
2022-11-14T09:01:52.958Z,18.97
2022-11-14T09:06:45.483Z,18.96
2022-11-14T09:11:38.197Z,18.95
2022-11-14T09:16:30.795Z,18.93
2022-11-14T09:21:23.354Z,18.91
2022-11-14T09:26:16.098Z,18.9
2022-11-14T09:36:00.704Z,18.85
2022-11-14T09:45:46.033Z,18.85
2022-11-14T09:50:38.782Z,18.88
2022-11-14T09:55:36.426Z,18.89
2022-11-14T10:05:16.661Z,18.96
2022-11-14T10:10:09.198Z,18.96
2022-11-14T10:15:01.930Z,18.97
2022-11-14T10:19:54.617Z,19.02
2022-11-14T10:24:47.425Z,19.03
2022-11-14T10:29:39.915Z,19.06
2022-11-14T10:34:32.560Z,19.07
2022-11-14T10:39:25.160Z,19.13
2022-11-14T10:44:17.803Z,19.11
2022-11-14T10:49:10.335Z,19.16
2022-11-14T10:54:03.102Z,19.15
2022-11-14T10:58:55.831Z,19.19
2022-11-14T11:03:48.505Z,19.23
2022-11-14T11:08:43.968Z,19.25
2022-11-14T11:13:33.815Z,19.27
2022-11-14T11:18:26.568Z,19.3
2022-11-14T11:23:18.849Z,19.34
2022-11-14T11:28:11.475Z,19.37
2022-11-14T11:33:04.239Z,19.34
2022-11-14T11:37:56.803Z,19.35
2022-11-14T11:47:42.149Z,19.43
2022-11-14T11:52:34.995Z,19.38
2022-11-14T11:57:27.672Z,19.43
2022-11-14T12:02:20.439Z,19.43
2022-11-14T12:07:13.083Z,19.44
2022-11-14T12:12:05.733Z,19.45
2022-11-14T12:16:58.436Z,19.47
2022-11-14T12:21:55.765Z,19.48
2022-11-14T12:26:43.805Z,19.47
2022-11-14T12:31:36.498Z,19.51
2022-11-14T12:36:29.034Z,19.52
2022-11-14T12:41:21.749Z,19.55
2022-11-14T12:46:14.416Z,19.52
2022-11-14T12:51:07.249Z,19.56
2022-11-14T12:55:59.591Z,19.56
2022-11-14T13:00:52.484Z,19.55
2022-11-14T13:05:45.562Z,19.59
2022-11-14T13:10:38.119Z,19.56
2022-11-14T13:15:30.820Z,19.52
2022-11-14T13:20:23.457Z,19.58
2022-11-14T13:25:16.109Z,19.55
2022-11-14T13:30:08.795Z,19.61
2022-11-14T13:35:01.667Z,19.61
2022-11-14T13:39:54.147Z,19.61
2022-11-14T13:44:46.605Z,19.72
2022-11-14T13:49:39.446Z,19.69
2022-11-14T13:54:32.382Z,19.95
2022-11-14T13:59:25.218Z,20.03
2022-11-14T14:04:18.019Z,20.12
2022-11-14T14:09:10.667Z,20.02
2022-11-14T14:14:03.537Z,20.03
2022-11-14T14:18:56.283Z,20.04
2022-11-14T14:23:49.184Z,20.07
2022-11-14T14:28:41.928Z,20.23
2022-11-14T14:33:34.743Z,20.1
2022-11-14T14:38:27.462Z,20.1
2022-11-14T14:43:20.093Z,19.99
2022-11-14T14:48:12.763Z,20
2022-11-14T14:53:05.540Z,19.9
2022-11-14T14:57:58.355Z,19.98
2022-11-14T15:02:51.168Z,19.93
2022-11-14T15:07:43.840Z,19.91
2022-11-14T15:12:36.563Z,19.93
2022-11-14T15:17:33.064Z,19.94
2022-11-14T15:22:21.959Z,19.9
2022-11-14T15:27:09.713Z,19.83
2022-11-14T15:32:02.126Z,19.73
2022-11-14T15:41:49.151Z,19.92
2022-11-14T15:46:42.097Z,20.04
2022-11-14T15:51:35.280Z,20.17
2022-11-14T15:56:27.712Z,20.15
2022-11-14T16:01:20.545Z,20.08
2022-11-14T16:06:13.036Z,20.05
2022-11-14T16:11:05.689Z,20.04
2022-11-14T16:15:58.357Z,20.04
2022-11-14T16:20:51.139Z,20.02
2022-11-14T16:25:43.807Z,20.01
2022-11-14T16:30:36.468Z,19.98
2022-11-14T16:35:29.207Z,19.98
2022-11-14T16:40:21.842Z,20.05
2022-11-14T16:45:14.679Z,20.2
2022-11-14T16:50:07.576Z,20.36
2022-11-14T16:55:00.278Z,20.52
2022-11-14T16:59:53.116Z,20.58
2022-11-14T17:04:45.744Z,20.5
2022-11-14T17:09:38.320Z,20.48
2022-11-14T17:14:30.898Z,20.5
2022-11-14T17:19:23.439Z,20.49
2022-11-14T17:24:12.986Z,20.45
2022-11-14T17:29:06.654Z,20.41
2022-11-14T17:33:59.154Z,20.37
2022-11-14T17:38:51.697Z,20.32
2022-11-14T17:43:44.451Z,20.26
2022-11-14T17:48:36.868Z,20.21
2022-11-14T17:53:29.643Z,20.17
2022-11-14T17:58:22.052Z,20.15
2022-11-14T18:03:14.725Z,20.12
2022-11-14T18:08:07.439Z,20.09
2022-11-14T18:12:59.973Z,20.08
2022-11-14T18:17:52.507Z,20.04
2022-11-14T18:22:45.134Z,20.01
2022-11-14T18:27:37.746Z,20
2022-11-14T18:32:30.293Z,19.99
2022-11-14T18:37:22.917Z,19.97
2022-11-14T18:42:15.391Z,19.94
2022-11-14T18:47:08.133Z,19.92
2022-11-14T18:52:03.875Z,19.91
2022-11-14T18:56:53.256Z,19.88
2022-11-14T19:01:46.016Z,19.88
2022-11-14T19:06:38.587Z,19.88
2022-11-14T19:11:31.123Z,19.87
2022-11-14T19:16:23.678Z,19.86
2022-11-14T19:21:16.318Z,19.84
2022-11-14T19:26:08.953Z,19.76
2022-11-14T19:31:01.589Z,19.73
2022-11-14T19:35:54.062Z,19.74
2022-11-14T19:40:46.513Z,19.7
2022-11-14T19:45:39.038Z,19.69
2022-11-14T19:50:32.552Z,19.69
2022-11-14T19:55:24.154Z,19.67
2022-11-14T20:00:17.636Z,19.66
2022-11-14T20:05:09.166Z,19.64
2022-11-14T20:10:01.588Z,19.65
2022-11-14T20:14:54.129Z,19.62
2022-11-14T20:19:47.616Z,19.62
2022-11-14T20:24:39.273Z,19.62
2022-11-14T20:29:31.821Z,19.6
2022-11-14T20:34:24.271Z,19.57
2022-11-14T20:39:16.812Z,19.52
2022-11-14T20:44:09.361Z,19.5
2022-11-14T20:49:01.894Z,19.47
2022-11-14T20:53:54.459Z,19.48
2022-11-14T20:58:46.982Z,19.45
2022-11-14T21:08:32.437Z,19.38
2022-11-14T21:13:24.798Z,19.39
2022-11-14T21:18:17.293Z,19.35
2022-11-14T21:28:02.520Z,19.29
2022-11-14T21:32:55.005Z,19.22
2022-11-14T21:37:47.535Z,19.22
2022-11-14T21:42:40.158Z,19.18
2022-11-14T21:47:32.678Z,19.17
2022-11-14T21:52:25.298Z,19.16
2022-11-14T21:57:17.981Z,19.14
2022-11-14T22:02:10.636Z,19.1
2022-11-14T22:07:03.202Z,19.07
2022-11-14T22:11:55.417Z,19.07
2022-11-14T22:16:47.876Z,19.05
2022-11-14T22:21:40.336Z,18.95
2022-11-14T22:26:32.866Z,18.98
2022-11-14T22:31:25.115Z,18.97
2022-11-14T22:36:17.555Z,18.94
2022-11-14T22:41:10.207Z,18.93
2022-11-14T22:46:02.808Z,18.89
2022-11-14T22:50:55.282Z,18.89
2022-11-14T22:55:47.924Z,18.87
2022-11-14T23:00:40.551Z,18.86
2022-11-14T23:05:32.767Z,18.83
2022-11-14T23:10:25.477Z,18.81
2022-11-14T23:15:18.097Z,18.81
2022-11-14T23:20:15.180Z,18.8
2022-11-14T23:25:03.263Z,18.77
2022-11-14T23:29:55.530Z,18.74
2022-11-14T23:34:47.905Z,18.74
2022-11-14T23:39:40.237Z,18.7
2022-11-14T23:44:32.371Z,18.68
2022-11-14T23:49:24.910Z,18.68
2022-11-14T23:54:17.525Z,18.66
2022-11-14T23:59:10.199Z,18.61
